Boyceville, WI (54725)

11:07 PM CST on January 21, 2017 (GMT -0600)
| | Change Station
Active Advisory: Dense Fog Advisory

Elev -9999 ft 0.00 °N, 0.00 °E | Updated 2 minutes ago

Fog
Fog
°F
Feels Like °F
N
Wind Variable Wind from North
Gusts mph

Today
High -- | Low -- °F
--% Chance of Precip.
Yesterday
High -- | Low -- °F
Precip. -- in
Pressure 29.54 in
Visibility 0.5 miles
Clouds Overcast 200 ft
Dew Point Not available.
Humidity Not available.
Rainfall --
Snow Depth Not available.
7:38 AM 5:01 PM
Waning Crescent, 29% visible
METAR KRNH 220455Z AUTO 00000KT 1/2SM -DZ OVC002 01/01 A2954 RMK AO2 T00080008
Pressure 29.54 in
Visibility 0.5 miles
Clouds Overcast 200 ft
Dew Point Not available.
Humidity Not available.
Rainfall --
Snow Depth Not available.
7:38 AM 5:01 PM
Waning Crescent, 29% visible
METAR KRNH 220455Z AUTO 00000KT 1/2SM -DZ OVC002 01/01 A2954 RMK AO2 T00080008

Get Your Daily Forecast Email!

Thanks for signing up!

Be on the lookout for a verification email in your inbox.

You'll start receiving the daily forecast at 8 AM.

×

10-Day Weather Forecast

Almanac

Astronomy

Jan. 21, 2017 Rise Set
Actual Time
Civil Twilight
Nautical Twilight
Astronomical Twilight
Moon
Length of Visible Light
Length of Day
Tomorrow will be .
, % of the Moon is Illuminated

Today's Extremes

State Highs State Lows

Community

WunderPhotos

Upload Photos

1,962,540 photos uploaded!

WunderBlog® & News

Nearby

Air Quality

  Air Quality AQ Index Pollutant
Not available.

Snow Depth

Station Depth Elevation

Earthquake Activity

City Distance Mag. Time & Date
Minimum magnitude displayed is 2.5.

Coastal Water Temperatures

Place Temperature

Stations

Nearby Weather Stations

Station Location Temp. Windchill Dew Point Humidity Wind Precip. Elev Updated Type
                   

Watches & Warnings

Dense Fog Advisory
Issued: 8:52 PM CST Jan. 21, 2017 – National Weather Service

... Dense fog advisory remains in effect until noon CST Sunday...

* visibility... areas of dense fog producing visibility one
quarter mile or less.

* Impacts... low visibilities will result in difficult driving
conditions.

Precautionary/preparedness actions...

A dense fog advisory means visibilities will frequently be
reduced to less than one quarter mile. If driving... slow down...
use your headlights... and leave plenty of distance ahead of you.